»·PEaware :: DAL41 KLAX-YSSY

DAL41 :: KLAX-YSSY

FLIGHT INFORMATION

Flight Status: Arrived
Operator:
Delta Air Lines
More flights by this operator :: More flights under this callsign
Pilot: Justin P. (23536)
Aircraft: BOEING 777-200
(B772)
More flights by this aircraft type
Origin: KLAX Los Angeles Intl
United States
Destination: YSSY Kingsford Smith Intl
Australia
More flights between these airports :: More routes between these airports
Route: SUMMR1 FICKY 30N125W 27N130W 24N135W 20N140W/N0499F340 16N145W 13N150W 08N155W 03N160W/N0495F360 02S165W 06S170W 12S175W 19S180W/N0492F380 22S175E 24S170E 25S168E 26S165E 27S163E NATLI ABARB RIKNI N774 TESAT
File this flight plan on PilotEdge
Remarks: RMK / SIMBRIEF
Altitude:
(Current/Filed)
32,000ft
Speed:
(Current/Filed)
491kts
Departed: 17-Feb-19 10:38 PM
Arrived: 18-Feb-19 01:07 PM
Distance/Time
Traveled:
6508nm/14:29
Distance/Time
To Go:
Arrived

Flight Plot

Page will automatically refresh every two minutes.

Flight plan parsing failed; only flown route is shown


Map Options




Map Legend


Flown Route
Filed Route
Departure Airport
Arrival Airport
Navaid (VOR, NDB)
Fix

Horizontal Profiles

Position Reports

Time Latitude Longitude Heading Altitude Ground
Speed
17-Feb-19 22:36 33.840123 -119.243031 254 22803ft 369kts
17-Feb-19 22:37 33.788486 -119.353853 237 24834ft 406kts
17-Feb-19 22:38 33.699607 -119.445217 228 26754ft 433kts
17-Feb-19 22:39 33.605070 -119.532450 228 28540ft 444kts
17-Feb-19 22:40 33.506439 -119.624350 228 30242ft 451kts
17-Feb-19 22:41 33.408381 -119.715996 227 32141ft 446kts
17-Feb-19 22:42 33.310920 -119.806475 227 32136ft 443kts
17-Feb-19 22:43 33.213448 -119.896686 227 32135ft 441kts
17-Feb-19 22:44 33.116591 -119.986070 227 32139ft 439kts
17-Feb-19 22:45 33.019737 -120.075196 227 32139ft 441kts
17-Feb-19 22:46 32.922731 -120.164209 227 32141ft 439kts
17-Feb-19 22:47 32.826065 -120.252857 227 32141ft 437kts
17-Feb-19 22:48 32.730011 -120.340516 227 32142ft 435kts
17-Feb-19 22:49 32.633636 -120.428054 227 32145ft 435kts
17-Feb-19 22:50 32.537736 -120.515031 227 32142ft 433kts
17-Feb-19 22:51 32.442177 -120.601411 227 32142ft 433kts
17-Feb-19 22:52 32.346220 -120.687907 227 32142ft 433kts
17-Feb-19 22:53 32.250531 -120.774512 227 32142ft 433kts
17-Feb-19 22:54 32.154970 -120.860511 227 32142ft 433kts
17-Feb-19 22:55 32.058713 -120.946813 227 32143ft 433kts
17-Feb-19 22:56 31.962642 -121.032708 227 32144ft 430kts
17-Feb-19 22:57 31.867359 -121.117668 227 32143ft 429kts
17-Feb-19 22:58 31.772092 -121.202649 227 32145ft 430kts
17-Feb-19 22:59 31.676673 -121.287188 227 32145ft 430kts
17-Feb-19 23:00 31.582003 -121.372678 233 32155ft 419kts
17-Feb-19 23:01 31.520189 -121.483639 250 32146ft 403kts
17-Feb-19 23:02 31.471165 -121.601536 250 32146ft 403kts
17-Feb-19 23:03 31.422175 -121.719290 250 32147ft 403kts
17-Feb-19 23:04 31.373376 -121.837554 250 32147ft 403kts
17-Feb-19 23:05 31.324536 -121.955217 250 32147ft 402kts
17-Feb-19 23:06 31.275350 -122.072933 250 32146ft 404kts
17-Feb-19 23:07 31.225858 -122.190957 250 32149ft 404kts
17-Feb-19 23:08 31.176275 -122.308788 250 32146ft 404kts
17-Feb-19 23:09 31.126578 -122.426497 250 32149ft 403kts
17-Feb-19 23:10 31.076773 -122.544079 250 32150ft 405kts
17-Feb-19 23:11 31.026786 -122.661713 249 32147ft 405kts
17-Feb-19 23:12 30.976588 -122.779469 249 32147ft 405kts
17-Feb-19 23:13 30.926446 -122.896729 249 32154ft 405kts
17-Feb-19 23:14 30.876037 -123.014218 249 32154ft 406kts
17-Feb-19 23:15 30.825394 -123.131891 249 32155ft 406kts
17-Feb-19 23:16 30.774717 -123.249280 249 32161ft 406kts
17-Feb-19 23:17 30.723832 -123.366778 249 32162ft 406kts
17-Feb-19 23:18 30.672908 -123.484001 249 32163ft 406kts
17-Feb-19 23:19 30.621873 -123.601116 249 32163ft 407kts
17-Feb-19 23:20 30.570767 -123.718032 249 32164ft 407kts
17-Feb-19 23:21 30.519478 -123.834997 248 32165ft 406kts
17-Feb-19 23:22 30.468095 -123.951818 248 32166ft 407kts
17-Feb-19 23:23 30.416606 -124.068523 248 32166ft 407kts
17-Feb-19 23:24 30.364951 -124.185240 248 32166ft 407kts
17-Feb-19 23:25 30.313049 -124.302165 248 32167ft 408kts
17-Feb-19 23:26 30.261114 -124.418802 248 32168ft 408kts
17-Feb-19 23:27 30.208858 -124.535811 248 32155ft 410kts
17-Feb-19 23:28 30.156459 -124.652778 248 32148ft 410kts
17-Feb-19 23:29 30.104052 -124.770037 248 32148ft 412kts
17-Feb-19 23:30 30.050969 -124.887441 248 32148ft 413kts
17-Feb-19 23:31 29.997606 -125.004651 246 32149ft 415kts
17-Feb-19 23:32 29.934592 -125.117666 242 32149ft 418kts
17-Feb-19 23:33 29.869787 -125.229555 242 32150ft 419kts
17-Feb-19 23:34 29.805753 -125.341384 243 32141ft 419kts
17-Feb-19 23:35 29.741684 -125.454498 243 32142ft 421kts
17-Feb-19 23:36 29.677494 -125.566903 242 32142ft 421kts
17-Feb-19 23:37 29.612856 -125.679646 242 32142ft 423kts
17-Feb-19 23:38 29.548037 -125.792367 242 32147ft 423kts
17-Feb-19 23:39 29.483113 -125.904958 242 32149ft 423kts
17-Feb-19 23:40 29.418068 -126.017448 242 32147ft 422kts
17-Feb-19 23:41 29.352665 -126.130249 242 32149ft 425kts
17-Feb-19 23:42 29.287114 -126.243001 242 32149ft 425kts
17-Feb-19 23:43 29.221545 -126.355467 242 32150ft 426kts
17-Feb-19 23:45 29.155467 -126.468495 241 32152ft 427kts
17-Feb-19 23:46 29.105443 -126.554326 241 32174ft 428kts
17-Feb-19 23:47 29.038763 -126.667481 241 32170ft 427kts
17-Feb-19 23:48 28.972564 -126.779802 241 32170ft 428kts
17-Feb-19 23:49 28.905839 -126.892779 241 32171ft 429kts
17-Feb-19 23:50 28.838896 -127.005826 241 32171ft 430kts
17-Feb-19 23:51 28.771795 -127.118839 241 32170ft 431kts
17-Feb-19 23:52 28.704639 -127.231642 240 32170ft 431kts
17-Feb-19 23:53 28.637125 -127.344739 240 32170ft 432kts
17-Feb-19 23:54 28.569325 -127.458015 240 32170ft 433kts
17-Feb-19 23:55 28.501312 -127.571343 240 32170ft 434kts
17-Feb-19 23:56 28.433042 -127.684794 240 32170ft 434kts
17-Feb-19 23:57 28.364574 -127.798270 240 32170ft 436kts
17-Feb-19 23:58 28.295825 -127.911912 240 32170ft 436kts
17-Feb-19 23:59 28.227106 -128.025202 239 32170ft 436kts
18-Feb-19 00:00 28.158024 -128.138785 239 32170ft 437kts
18-Feb-19 00:01 28.088933 -128.252086 239 32172ft 437kts
18-Feb-19 00:02 28.019597 -128.365490 239 32173ft 437kts
18-Feb-19 00:02 27.962031 -128.459416 239 32172ft 437kts
18-Feb-19 00:04 27.880791 -128.591605 239 32172ft 437kts
18-Feb-19 00:05 27.811192 -128.704536 239 32172ft 439kts
18-Feb-19 00:05 27.752973 -128.798786 239 32173ft 439kts
18-Feb-19 00:06 27.683071 -128.911685 239 32172ft 440kts
18-Feb-19 00:08 27.601092 -129.043721 239 32172ft 440kts
18-Feb-19 00:08 27.542242 -129.138256 239 32173ft 441kts
18-Feb-19 00:09 27.471597 -129.251472 239 32172ft 442kts
18-Feb-19 00:11 27.389002 -129.383470 238 32173ft 442kts
18-Feb-19 00:11 27.329957 -129.477594 238 32174ft 443kts
18-Feb-19 00:12 27.258594 -129.591085 238 32174ft 443kts
18-Feb-19 00:13 27.187516 -129.703852 239 32187ft 442kts
18-Feb-19 00:14 27.116427 -129.816679 238 32189ft 441kts
18-Feb-19 00:15 27.045354 -129.928620 238 32190ft 441kts
18-Feb-19 00:16 26.975254 -130.041290 241 32190ft 439kts
18-Feb-19 00:17 26.909981 -130.157095 241 32189ft 439kts
18-Feb-19 00:18 26.844308 -130.272187 241 32189ft 438kts
18-Feb-19 00:19 26.778784 -130.387099 241 32189ft 437kts
18-Feb-19 00:20 26.713182 -130.501846 241 32189ft 437kts
18-Feb-19 00:21 26.647356 -130.616362 241 32189ft 437kts
18-Feb-19 00:22 26.581426 -130.730714 241 32189ft 437kts
18-Feb-19 00:23 26.515460 -130.844823 241 32190ft 437kts
18-Feb-19 00:24 26.449234 -130.959096 241 32189ft 438kts
18-Feb-19 00:25 26.383174 -131.072789 241 32195ft 437kts
18-Feb-19 00:26 26.316914 -131.186546 241 32195ft 437kts
18-Feb-19 00:27 26.250756 -131.299843 241 32195ft 437kts
18-Feb-19 00:28 26.184375 -131.413238 241 32196ft 436kts
18-Feb-19 00:29 26.117900 -131.526518 241 32195ft 436kts
18-Feb-19 00:30 26.051666 -131.639108 241 32194ft 435kts
18-Feb-19 00:31 25.985344 -131.751573 241 32195ft 435kts
18-Feb-19 00:32 25.919019 -131.863769 241 32192ft 434kts
18-Feb-19 00:33 25.852668 -131.975735 241 32192ft 434kts
18-Feb-19 00:34 25.786137 -132.087736 241 32191ft 434kts
18-Feb-19 00:35 25.719431 -132.199760 241 32185ft 435kts
18-Feb-19 00:36 25.652630 -132.311677 240 32181ft 435kts
18-Feb-19 00:37 25.585607 -132.423693 240 32181ft 436kts
18-Feb-19 00:38 25.518299 -132.535918 240 32181ft 437kts
18-Feb-19 00:39 25.450927 -132.647982 240 32180ft 438kts
18-Feb-19 00:40 25.383320 -132.760168 240 32180ft 438kts
18-Feb-19 00:41 25.315447 -132.872529 240 32180ft 439kts
18-Feb-19 00:42 25.247232 -132.985188 240 32179ft 441kts
18-Feb-19 00:43 25.178980 -133.097641 240 32178ft 441kts
18-Feb-19 00:44 25.110532 -133.210150 240 32176ft 441kts
18-Feb-19 00:45 25.041990 -133.322548 240 32176ft 443kts
18-Feb-19 00:46 24.972964 -133.435478 240 32176ft 443kts
18-Feb-19 00:47 24.903812 -133.548351 240 32175ft 444kts
18-Feb-19 00:48 24.834680 -133.660924 240 32175ft 445kts
18-Feb-19 00:49 24.765123 -133.773924 239 32161ft 446kts
18-Feb-19 00:50 24.695319 -133.887057 239 32160ft 447kts
18-Feb-19 00:51 24.625200 -134.000435 239 32152ft 448kts
18-Feb-19 00:52 24.554922 -134.113799 239 32151ft 450kts
18-Feb-19 00:53 24.484320 -134.227419 239 32151ft 451kts
18-Feb-19 00:54 24.413502 -134.341136 239 32150ft 451kts
18-Feb-19 00:55 24.342691 -134.454577 239 32149ft 451kts
18-Feb-19 00:56 24.271777 -134.567924 239 32149ft 451kts
18-Feb-19 00:57 24.200866 -134.681008 239 32148ft 451kts
18-Feb-19 00:58 24.129952 -134.794186 239 32148ft 451kts
18-Feb-19 00:59 24.058564 -134.907304 239 32147ft 451kts
18-Feb-19 01:00 23.986402 -135.019767 236 32105ft 453kts
18-Feb-19 01:01 23.904871 -135.125767 233 32103ft 455kts
18-Feb-19 01:02 23.823003 -135.231362 234 32106ft 455kts
18-Feb-19 01:03 23.741865 -135.337201 234 32106ft 455kts
18-Feb-19 01:04 23.660379 -135.443569 234 32106ft 456kts
18-Feb-19 01:05 23.579094 -135.549236 234 32103ft 456kts
18-Feb-19 01:06 23.497352 -135.655239 234 32102ft 456kts
18-Feb-19 01:07 23.415674 -135.760928 234 32101ft 456kts
18-Feb-19 01:08 23.333971 -135.866428 234 32101ft 456kts
18-Feb-19 01:09 23.252257 -135.971719 234 32101ft 455kts
18-Feb-19 01:10 23.170675 -136.076622 234 32097ft 454kts
18-Feb-19 01:11 23.088988 -136.181444 233 32096ft 454kts
18-Feb-19 01:12 23.007568 -136.285707 234 32096ft 453kts
18-Feb-19 01:13 22.926104 -136.389814 233 32085ft 452kts
18-Feb-19 01:14 22.844481 -136.493912 233 32082ft 452kts
18-Feb-19 01:15 22.762788 -136.597890 233 32079ft 452kts
18-Feb-19 01:16 22.681353 -136.701329 233 32079ft 452kts
18-Feb-19 01:17 22.599571 -136.805001 233 32078ft 451kts
18-Feb-19 01:18 22.518100 -136.908072 233 32078ft 451kts
18-Feb-19 01:19 22.436277 -137.011384 233 32077ft 451kts
18-Feb-19 01:20 22.354750 -137.114119 233 32082ft 451kts
18-Feb-19 01:21 22.273000 -137.216931 233 32084ft 451kts
18-Feb-19 01:22 22.191254 -137.319537 233 32084ft 450kts
18-Feb-19 01:23 22.109541 -137.421908 233 32083ft 450kts
18-Feb-19 01:24 22.027892 -137.524009 233 32071ft 450kts
18-Feb-19 01:25 21.945990 -137.626216 234 32080ft 449kts
18-Feb-19 01:26 21.864400 -137.727841 233 32081ft 449kts
18-Feb-19 01:27 21.782571 -137.829576 234 32081ft 449kts
18-Feb-19 01:28 21.700582 -137.931310 233 32080ft 449kts
18-Feb-19 01:29 21.618584 -138.032858 234 32080ft 449kts
18-Feb-19 01:30 21.536619 -138.134178 233 32077ft 448kts
18-Feb-19 01:31 21.454579 -138.235397 233 32077ft 449kts
18-Feb-19 01:32 21.372393 -138.336610 233 32076ft 449kts
18-Feb-19 01:33 21.290361 -138.437442 233 32076ft 448kts
18-Feb-19 01:34 21.208335 -138.538075 233 32075ft 448kts
18-Feb-19 01:35 21.126141 -138.638721 233 32076ft 448kts
18-Feb-19 01:36 21.044140 -138.738959 233 32078ft 448kts
18-Feb-19 01:37 20.962083 -138.839090 233 32078ft 448kts
18-Feb-19 01:38 20.879859 -138.939242 233 32077ft 448kts
18-Feb-19 01:39 20.797414 -139.039483 233 32074ft 447kts
18-Feb-19 01:40 20.715258 -139.139191 233 32074ft 449kts
18-Feb-19 01:41 20.632498 -139.239457 233 32073ft 449kts
18-Feb-19 01:42 20.550067 -139.339146 233 32073ft 449kts
18-Feb-19 01:43 20.467471 -139.438858 233 32147ft 448kts
18-Feb-19 01:44 20.384741 -139.538556 233 32143ft 448kts
18-Feb-19 01:45 20.301795 -139.638341 233 32055ft 449kts
18-Feb-19 01:46 20.219132 -139.737618 233 32055ft 448kts
18-Feb-19 01:47 20.136276 -139.837147 232 32054ft 448kts
18-Feb-19 01:48 20.053570 -139.936003 232 32054ft 448kts
18-Feb-19 01:49 19.971426 -140.035712 234 32054ft 447kts
18-Feb-19 01:50 19.893042 -140.138362 235 32053ft 447kts
18-Feb-19 01:51 19.814332 -140.240512 235 32053ft 447kts
18-Feb-19 01:52 19.735640 -140.342681 235 32052ft 447kts
18-Feb-19 01:53 19.656757 -140.444847 234 32051ft 447kts
18-Feb-19 01:54 19.577630 -140.547001 234 32051ft 447kts
18-Feb-19 01:55 19.498672 -140.648734 234 32050ft 447kts
18-Feb-19 01:56 19.419493 -140.750574 234 32050ft 448kts
18-Feb-19 01:57 19.340165 -140.852433 234 32049ft 447kts
18-Feb-19 01:58 19.260938 -140.953991 234 32049ft 448kts
18-Feb-19 01:59 19.181496 -141.055656 234 32056ft 448kts
18-Feb-19 02:00 19.102136 -141.157065 234 32056ft 448kts
18-Feb-19 02:02 19.022545 -141.258595 234 32055ft 448kts
18-Feb-19 02:03 18.942924 -141.359982 234 32054ft 448kts
18-Feb-19 02:04 18.863416 -141.461059 233 32054ft 448kts
18-Feb-19 02:05 18.783573 -141.562392 233 32053ft 448kts
18-Feb-19 02:06 18.703624 -141.663697 233 32053ft 449kts
18-Feb-19 02:07 18.623594 -141.764943 233 32052ft 450kts
18-Feb-19 02:08 18.543522 -141.866074 233 32052ft 450kts
18-Feb-19 02:09 18.463136 -141.967441 233 32051ft 451kts
18-Feb-19 02:10 18.382466 -142.069000 233 32051ft 451kts
18-Feb-19 02:11 18.301793 -142.170401 233 32044ft 451kts
18-Feb-19 02:12 18.221178 -142.271567 233 32043ft 451kts
18-Feb-19 02:13 18.140718 -142.372380 233 32043ft 451kts
18-Feb-19 02:14 18.060004 -142.473344 232 32042ft 451kts
18-Feb-19 02:15 17.979088 -142.574402 232 32042ft 451kts
18-Feb-19 02:16 17.898311 -142.675130 232 32042ft 452kts
18-Feb-19 02:17 17.817102 -142.776244 232 32041ft 453kts
18-Feb-19 02:18 17.735852 -142.877253 232 32041ft 453kts
18-Feb-19 02:19 17.654416 -142.978337 232 32041ft 452kts
18-Feb-19 02:20 17.572979 -143.079270 232 32040ft 453kts
18-Feb-19 02:20 17.505139 -143.163232 232 32040ft 453kts
18-Feb-19 02:22 17.409941 -143.280877 231 32039ft 453kts
18-Feb-19 02:23 17.328451 -143.381415 231 32039ft 453kts
18-Feb-19 02:23 17.260427 -143.465224 231 32038ft 453kts
18-Feb-19 02:24 17.178670 -143.565812 231 32038ft 454kts
18-Feb-19 02:26 17.083237 -143.683045 231 32038ft 454kts
18-Feb-19 02:26 17.015110 -143.766607 231 32038ft 455kts
18-Feb-19 02:27 16.932811 -143.867416 231 32037ft 455kts
18-Feb-19 02:28 16.850657 -143.967900 231 32037ft 456kts
18-Feb-19 02:29 16.768255 -144.068540 231 32036ft 455kts
18-Feb-19 02:30 16.685958 -144.168904 231 32036ft 456kts
18-Feb-19 02:31 16.603283 -144.269583 231 32036ft 456kts
18-Feb-19 02:32 16.520660 -144.370058 231 32035ft 456kts
18-Feb-19 02:33 16.437904 -144.470549 231 32035ft 456kts
18-Feb-19 02:34 16.355160 -144.570883 231 32034ft 456kts
18-Feb-19 02:35 16.272362 -144.671142 231 32034ft 456kts
18-Feb-19 02:36 16.189575 -144.771374 231 32034ft 456kts
18-Feb-19 02:37 16.106908 -144.871190 231 32034ft 455kts
18-Feb-19 02:38 16.024217 -144.970811 231 32034ft 455kts
18-Feb-19 02:39 15.952427 -145.078574 240 32033ft 455kts
18-Feb-19 02:40 15.887953 -145.191608 240 32033ft 454kts
18-Feb-19 02:41 15.822574 -145.304034 239 32032ft 454kts
18-Feb-19 02:42 15.757298 -145.416378 239 32032ft 454kts
18-Feb-19 02:43 15.691959 -145.528249 239 32032ft 453kts
18-Feb-19 02:44 15.626494 -145.640082 239 32032ft 453kts
18-Feb-19 02:45 15.560984 -145.751828 239 32031ft 453kts
18-Feb-19 02:46 15.495425 -145.863475 239 32031ft 453kts
18-Feb-19 02:47 15.429942 -145.974822 239 32031ft 453kts
18-Feb-19 02:48 15.364242 -146.086377 239 32031ft 453kts
18-Feb-19 02:49 15.298592 -146.197677 239 32030ft 453kts
18-Feb-19 02:50 15.232802 -146.309049 239 32030ft 453kts
18-Feb-19 02:51 15.166786 -146.420639 239 32030ft 454kts
18-Feb-19 02:52 15.100711 -146.532163 239 32029ft 454kts
18-Feb-19 02:53 15.034823 -146.643236 239 32029ft 454kts
18-Feb-19 02:54 14.968701 -146.754529 239 32029ft 454kts
18-Feb-19 02:55 14.902307 -146.866099 239 32028ft 454kts
18-Feb-19 02:56 14.836266 -146.976932 239 32028ft 454kts
18-Feb-19 02:57 14.769754 -147.088393 239 32028ft 455kts
18-Feb-19 02:58 14.703273 -147.199630 239 32028ft 455kts
18-Feb-19 02:59 14.636728 -147.310832 239 32027ft 454kts
18-Feb-19 03:00 14.570222 -147.421814 239 32027ft 454kts
18-Feb-19 03:01 14.503657 -147.532749 239 32027ft 455kts
18-Feb-19 03:02 14.437028 -147.643631 239 32027ft 455kts
18-Feb-19 03:03 14.370207 -147.754681 239 32026ft 455kts
18-Feb-19 03:04 14.303389 -147.865575 239 32026ft 456kts
18-Feb-19 03:05 14.236380 -147.976636 239 32025ft 456kts
18-Feb-19 03:06 14.169241 -148.087760 239 32025ft 456kts
18-Feb-19 03:07 14.102111 -148.198720 239 32025ft 456kts
18-Feb-19 03:08 14.035018 -148.309468 239 32024ft 456kts
18-Feb-19 03:09 13.967758 -148.420344 238 32024ft 456kts
18-Feb-19 03:10 13.900438 -148.531174 238 32017ft 457kts
18-Feb-19 03:11 13.832922 -148.642179 238 32017ft 457kts
18-Feb-19 03:12 13.765460 -148.752947 238 32016ft 457kts
18-Feb-19 03:13 13.697859 -148.863795 238 32016ft 458kts
18-Feb-19 03:14 13.630142 -148.974696 238 32015ft 458kts
18-Feb-19 03:15 13.562447 -149.085415 238 32015ft 458kts
18-Feb-19 03:16 13.494534 -149.196348 238 32015ft 458kts
18-Feb-19 03:17 13.426657 -149.307079 238 32014ft 458kts
18-Feb-19 03:18 13.358735 -149.417745 238 32014ft 458kts
18-Feb-19 03:19 13.290717 -149.528424 238 32013ft 458kts
18-Feb-19 03:20 13.222621 -149.639100 238 32006ft 458kts
18-Feb-19 03:21 13.154577 -149.749690 238 31997ft 458kts
18-Feb-19 03:22 13.086596 -149.859890 238 31997ft 458kts
18-Feb-19 03:23 13.018248 -149.970402 237 31996ft 459kts
18-Feb-19 03:24 12.934339 -150.069457 226 31996ft 461kts
18-Feb-19 03:25 12.842509 -150.161721 226 31995ft 461kts
18-Feb-19 03:26 12.751385 -150.254506 226 31994ft 462kts
18-Feb-19 03:27 12.660456 -150.347642 226 31994ft 462kts
18-Feb-19 03:28 12.569434 -150.440658 226 31993ft 463kts
18-Feb-19 03:29 12.478084 -150.533888 226 31992ft 463kts
18-Feb-19 03:30 12.386862 -150.626886 226 31991ft 463kts
18-Feb-19 03:31 12.295682 -150.719743 226 31991ft 463kts
18-Feb-19 03:32 12.204247 -150.812758 226 31989ft 463kts
18-Feb-19 03:33 12.113066 -150.905429 226 31989ft 462kts
18-Feb-19 03:34 12.021854 -150.998030 226 31987ft 462kts
18-Feb-19 03:35 11.930461 -151.090708 226 31987ft 465kts
18-Feb-19 03:36 11.838760 -151.183619 226 31987ft 465kts
18-Feb-19 03:37 11.747053 -151.276437 226 31985ft 464kts
18-Feb-19 03:38 11.655245 -151.369269 226 31984ft 464kts
18-Feb-19 03:39 11.563345 -151.462105 226 31982ft 464kts
18-Feb-19 03:40 11.471357 -151.554940 226 31982ft 464kts
18-Feb-19 03:41 11.379496 -151.647556 226 31980ft 464kts
18-Feb-19 03:42 11.287621 -151.740097 226 31979ft 464kts
18-Feb-19 03:43 11.195640 -151.832657 225 31978ft 465kts
18-Feb-19 03:44 11.103529 -151.925260 225 31977ft 465kts
18-Feb-19 03:45 11.011237 -152.017959 225 31976ft 466kts
18-Feb-19 03:46 10.919089 -152.110426 225 31974ft 465kts
18-Feb-19 03:47 10.826780 -152.202968 225 31973ft 466kts
18-Feb-19 03:48 10.734392 -152.295506 225 31972ft 466kts
18-Feb-19 03:49 10.641870 -152.388095 225 31971ft 467kts
18-Feb-19 03:50 10.549130 -152.480819 225 31969ft 467kts
18-Feb-19 03:51 10.456672 -152.573176 225 31968ft 467kts
18-Feb-19 03:52 10.363959 -152.665708 225 31967ft 467kts
18-Feb-19 03:53 10.271284 -152.758120 225 31965ft 467kts
18-Feb-19 03:54 10.178537 -152.850524 225 31964ft 467kts
18-Feb-19 03:55 10.085623 -152.943014 225 31963ft 467kts
18-Feb-19 03:56 9.992911 -153.035226 225 31961ft 467kts
18-Feb-19 03:57 9.899825 -153.127731 225 31960ft 469kts
18-Feb-19 03:58 9.806606 -153.220290 225 31959ft 469kts
18-Feb-19 03:59 9.713340 -153.312819 225 31957ft 469kts
18-Feb-19 04:00 9.620380 -153.404968 225 31956ft 469kts
18-Feb-19 04:01 9.527204 -153.497257 225 31955ft 469kts
18-Feb-19 04:02 9.433913 -153.589586 225 31953ft 468kts
18-Feb-19 04:03 9.340654 -153.681808 225 31952ft 468kts
18-Feb-19 04:04 9.247396 -153.773957 225 31950ft 468kts
18-Feb-19 04:05 9.153999 -153.866172 225 31949ft 469kts
18-Feb-19 04:06 9.060393 -153.958522 225 31948ft 469kts
18-Feb-19 04:07 8.966847 -154.050743 225 31946ft 469kts
18-Feb-19 04:08 8.873358 -154.142839 225 31945ft 470kts
18-Feb-19 04:09 8.779674 -154.235052 225 31943ft 470kts
18-Feb-19 04:10 8.685839 -154.327349 225 31936ft 471kts
18-Feb-19 04:11 8.591835 -154.419745 225 31935ft 470kts
18-Feb-19 04:12 8.498097 -154.511812 225 31934ft 471kts
18-Feb-19 04:13 8.404021 -154.604147 225 31933ft 471kts
18-Feb-19 04:14 8.310068 -154.696296 225 31932ft 471kts
18-Feb-19 04:15 8.216138 -154.788401 225 31931ft 471kts
18-Feb-19 04:16 8.121904 -154.880713 225 31930ft 471kts
18-Feb-19 04:17 8.027807 -154.972780 225 31928ft 471kts
18-Feb-19 04:18 7.934935 -155.065684 226 31932ft 472kts
18-Feb-19 04:20 7.842301 -155.159682 225 31938ft 472kts
18-Feb-19 04:21 7.749695 -155.253468 226 31936ft 471kts
18-Feb-19 04:22 7.657377 -155.347059 225 31935ft 471kts
18-Feb-19 04:23 7.564953 -155.440592 225 31934ft 471kts
18-Feb-19 04:24 7.472470 -155.534103 225 31934ft 471kts
18-Feb-19 04:25 7.379965 -155.627580 225 31932ft 471kts
18-Feb-19 04:26 7.287995 -155.720456 225 31930ft 466kts
18-Feb-19 04:27 7.196181 -155.813116 225 31930ft 467kts
18-Feb-19 04:28 7.104405 -155.905683 225 31928ft 467kts
18-Feb-19 04:29 7.012422 -155.998402 225 31927ft 468kts
18-Feb-19 04:30 6.920467 -156.091037 225 31929ft 467kts
18-Feb-19 04:31 6.828678 -156.183452 225 31928ft 467kts
18-Feb-19 04:32 6.736708 -156.275995 225 31926ft 467kts
18-Feb-19 04:33 6.644623 -156.368602 225 31926ft 467kts
18-Feb-19 04:34 6.552556 -156.461139 225 31925ft 468kts
18-Feb-19 04:35 6.460443 -156.553671 225 31923ft 468kts
18-Feb-19 04:36 6.368208 -156.646272 225 31923ft 468kts
18-Feb-19 04:37 6.275967 -156.738836 225 31922ft 468kts
18-Feb-19 04:37 6.199254 -156.815777 225 31921ft 468kts
18-Feb-19 04:39 6.091536 -156.923761 225 31920ft 468kts
18-Feb-19 04:40 5.999412 -157.016056 225 31917ft 468kts
18-Feb-19 04:40 5.922190 -157.093388 225 31917ft 469kts
18-Feb-19 04:42 5.814571 -157.201104 225 31916ft 469kts
18-Feb-19 04:43 5.722119 -157.293593 225 31915ft 469kts
18-Feb-19 04:43 5.645228 -157.370481 225 31915ft 469kts
18-Feb-19 04:44 5.552791 -157.462872 225 31914ft 469kts
18-Feb-19 04:46 5.444928 -157.570628 225 31915ft 469kts
18-Feb-19 04:46 5.367895 -157.647548 225 31915ft 469kts
18-Feb-19 04:47 5.275394 -157.739877 225 31914ft 469kts
18-Feb-19 04:48 5.183102 -157.831955 225 31914ft 468kts
18-Feb-19 04:49 5.090560 -157.924242 225 31913ft 469kts
18-Feb-19 04:50 4.997916 -158.016594 224 31913ft 469kts
18-Feb-19 04:51 4.904987 -158.109190 224 31912ft 470kts
18-Feb-19 04:52 4.812227 -158.201579 224 31912ft 470kts
18-Feb-19 04:53 4.719475 -158.293919 224 31912ft 470kts
18-Feb-19 04:54 4.626647 -158.386299 224 31911ft 470kts
18-Feb-19 04:55 4.533841 -158.478628 224 31911ft 470kts
18-Feb-19 04:56 4.440800 -158.571151 224 31911ft 470kts
18-Feb-19 04:57 4.348047 -158.663346 224 31910ft 470kts
18-Feb-19 04:58 4.255190 -158.755616 224 31910ft 470kts
18-Feb-19 04:59 4.162335 -158.847852 224 31910ft 470kts
18-Feb-19 05:00 4.069408 -158.940128 224 31909ft 471kts
18-Feb-19 05:01 3.975986 -159.032866 224 31910ft 471kts
18-Feb-19 05:02 3.882652 -159.125476 224 31909ft 472kts
18-Feb-19 05:03 3.789330 -159.218049 224 31909ft 472kts
18-Feb-19 05:04 3.696153 -159.310450 224 31909ft 472kts
18-Feb-19 05:05 3.602758 -159.403038 224 31909ft 472kts
18-Feb-19 05:06 3.509071 -159.495888 224 31909ft 472kts
18-Feb-19 05:07 3.415635 -159.588463 224 31909ft 472kts
18-Feb-19 05:08 3.322281 -159.680931 224 31909ft 472kts
18-Feb-19 05:09 3.229034 -159.773272 224 31909ft 473kts
18-Feb-19 05:10 3.135261 -159.866130 224 31911ft 474kts
18-Feb-19 05:11 3.041446 -159.958973 223 31912ft 474kts
18-Feb-19 05:12 2.947940 -160.052096 224 31911ft 475kts
18-Feb-19 05:13 2.854443 -160.145838 224 31911ft 476kts
18-Feb-19 05:14 2.760728 -160.239768 224 31911ft 477kts
18-Feb-19 05:15 2.667315 -160.333445 224 31911ft 477kts
18-Feb-19 05:16 2.573388 -160.427569 224 31912ft 478kts
18-Feb-19 05:17 2.479209 -160.521926 224 31912ft 478kts
18-Feb-19 05:18 2.385429 -160.615861 224 31912ft 478kts
18-Feb-19 05:19 2.291393 -160.710040 224 31913ft 478kts
18-Feb-19 05:20 2.197435 -160.804112 224 31913ft 478kts
18-Feb-19 05:21 2.103304 -160.898338 224 31913ft 479kts
18-Feb-19 05:22 2.009258 -160.992464 224 31914ft 478kts
18-Feb-19 05:23 1.914834 -161.086954 224 31907ft 481kts
18-Feb-19 05:24 1.820236 -161.181604 224 31907ft 481kts
18-Feb-19 05:25 1.725457 -161.276423 224 31907ft 481kts
18-Feb-19 05:26 1.630944 -161.370951 224 31907ft 482kts
18-Feb-19 05:27 1.536185 -161.465726 224 31907ft 482kts
18-Feb-19 05:28 1.441152 -161.560750 224 31907ft 482kts
18-Feb-19 05:29 1.346499 -161.655383 224 31907ft 482kts
18-Feb-19 05:30 1.251451 -161.750403 224 31907ft 482kts
18-Feb-19 05:31 1.156860 -161.844962 224 31907ft 482kts
18-Feb-19 05:32 1.061870 -161.939904 224 31907ft 483kts
18-Feb-19 05:33 0.966568 -162.035144 224 31907ft 484kts
18-Feb-19 05:34 0.871339 -162.130307 224 31909ft 485kts
18-Feb-19 05:35 0.775892 -162.225682 224 31907ft 485kts
18-Feb-19 05:36 0.680389 -162.321107 223 31907ft 485kts
18-Feb-19 05:37 0.584841 -162.416571 223 31907ft 486kts
18-Feb-19 05:38 0.489108 -162.512215 223 31907ft 486kts
18-Feb-19 05:39 0.393866 -162.607365 223 31907ft 486kts
18-Feb-19 05:40 0.298226 -162.702908 223 31907ft 486kts
18-Feb-19 05:41 0.202518 -162.798516 223 31907ft 486kts
18-Feb-19 05:42 0.106950 -162.893985 223 31907ft 486kts
18-Feb-19 05:43 0.011237 -162.989597 223 31906ft 486kts
18-Feb-19 05:44 -0.084448 -163.085181 223 31906ft 488kts
18-Feb-19 05:45 -0.180762 -163.181392 223 31906ft 488kts
18-Feb-19 05:46 -0.276763 -163.277294 223 31906ft 488kts
18-Feb-19 05:47 -0.372761 -163.373195 223 31906ft 488kts
18-Feb-19 05:48 -0.468833 -163.469174 223 31905ft 488kts
18-Feb-19 05:49 -0.564840 -163.565091 223 31905ft 489kts
18-Feb-19 05:50 -0.661045 -163.661211 223 31905ft 489kts
18-Feb-19 05:51 -0.757307 -163.757391 223 31904ft 489kts
18-Feb-19 05:52 -0.853686 -163.853700 223 31904ft 489kts
18-Feb-19 05:53 -0.949921 -163.949869 223 31904ft 489kts
18-Feb-19 05:54 -1.046128 -164.046020 223 31904ft 489kts
18-Feb-19 05:55 -1.142265 -164.142107 223 31906ft 490kts
18-Feb-19 05:56 -1.238821 -164.238626 223 31903ft 490kts
18-Feb-19 05:57 -1.335172 -164.334950 223 31903ft 490kts
18-Feb-19 05:58 -1.431541 -164.431303 223 31902ft 490kts
18-Feb-19 05:59 -1.527840 -164.527600 223 31901ft 490kts
18-Feb-19 06:00 -1.624345 -164.624116 223 31901ft 490kts
18-Feb-19 06:01 -1.720616 -164.720412 223 31899ft 490kts
18-Feb-19 06:02 -1.816887 -164.816715 223 31900ft 490kts
18-Feb-19 06:03 -1.913146 -164.913050 223 31900ft 490kts
18-Feb-19 06:04 -2.008819 -165.009685 226 31899ft 490kts
18-Feb-19 06:05 -2.094916 -165.116084 230 31898ft 492kts
18-Feb-19 06:06 -2.180255 -165.223469 229 31898ft 492kts
18-Feb-19 06:07 -2.265895 -165.329957 229 31898ft 492kts
18-Feb-19 06:08 -2.351728 -165.436568 229 31897ft 492kts
18-Feb-19 06:09 -2.437410 -165.542997 229 31896ft 491kts
18-Feb-19 06:10 -2.522962 -165.649285 229 31892ft 491kts
18-Feb-19 06:11 -2.608659 -165.755782 229 31892ft 491kts
18-Feb-19 06:12 -2.694423 -165.862388 229 31891ft 491kts
18-Feb-19 06:13 -2.780022 -165.968818 229 31890ft 492kts
18-Feb-19 06:14 -2.865658 -166.075318 229 31890ft 491kts
18-Feb-19 06:15 -2.951455 -166.182050 229 31889ft 491kts
18-Feb-19 06:16 -3.036815 -166.288266 229 31888ft 491kts
18-Feb-19 06:17 -3.122478 -166.394887 229 31888ft 491kts
18-Feb-19 06:18 -3.208206 -166.501622 229 31887ft 491kts
18-Feb-19 06:19 -3.293518 -166.607871 229 31886ft 491kts
18-Feb-19 06:20 -3.379120 -166.714513 229 31885ft 491kts
18-Feb-19 06:21 -3.464742 -166.821211 229 31885ft 491kts
18-Feb-19 06:22 -3.550310 -166.927879 229 31884ft 491kts
18-Feb-19 06:23 -3.635641 -167.034286 229 31883ft 490kts
18-Feb-19 06:24 -3.721080 -167.140862 229 31883ft 490kts
18-Feb-19 06:25 -3.806357 -167.247273 229 31882ft 490kts
18-Feb-19 06:26 -3.891703 -167.353808 229 31881ft 490kts
18-Feb-19 06:27 -3.977228 -167.460606 230 31883ft 490kts
18-Feb-19 06:28 -4.062508 -167.567135 230 31882ft 490kts
18-Feb-19 06:29 -4.147582 -167.673449 230 31881ft 490kts
18-Feb-19 06:30 -4.232800 -167.779980 230 31881ft 490kts
18-Feb-19 06:31 -4.318206 -167.886793 230 31880ft 490kts
18-Feb-19 06:32 -4.403390 -167.993368 230 31880ft 490kts
18-Feb-19 06:33 -4.488635 -168.100061 230 31879ft 490kts
18-Feb-19 06:34 -4.573842 -168.206756 230 31878ft 490kts
18-Feb-19 06:35 -4.659050 -168.313496 230 31877ft 491kts
18-Feb-19 06:37 -4.744109 -168.420093 230 31877ft 491kts
18-Feb-19 06:38 -4.829466 -168.527110 230 31876ft 491kts
18-Feb-19 06:39 -4.914782 -168.634131 230 31875ft 492kts
18-Feb-19 06:40 -5.000400 -168.741570 230 31874ft 492kts
18-Feb-19 06:41 -5.085742 -168.848714 231 31874ft 492kts
18-Feb-19 06:42 -5.171307 -168.956193 231 31873ft 493kts
18-Feb-19 06:43 -5.256696 -169.063503 231 31873ft 493kts
18-Feb-19 06:44 -5.342594 -169.171503 231 31872ft 494kts
18-Feb-19 06:45 -5.428251 -169.279258 231 31872ft 494kts
18-Feb-19 06:46 -5.514261 -169.387512 231 31870ft 495kts
18-Feb-19 06:47 -5.600161 -169.495680 231 31871ft 497kts
18-Feb-19 06:48 -5.686344 -169.604268 230 31869ft 497kts
18-Feb-19 06:49 -5.772431 -169.712793 230 31868ft 498kts
18-Feb-19 06:50 -5.858827 -169.821710 230 31868ft 498kts
18-Feb-19 06:51 -5.945196 -169.930768 230 31868ft 499kts
18-Feb-19 06:52 -6.038663 -170.033467 220 31867ft 498kts
18-Feb-19 06:53 -6.146696 -170.120830 217 31866ft 498kts
18-Feb-19 06:54 -6.254409 -170.208127 218 31865ft 498kts
18-Feb-19 06:55 -6.361771 -170.295799 218 31865ft 497kts
18-Feb-19 06:56 -6.468938 -170.383510 218 31864ft 496kts
18-Feb-19 06:56 -6.558266 -170.456680 218 31863ft 497kts
18-Feb-19 06:58 -6.683337 -170.559192 218 31863ft 496kts
18-Feb-19 06:59 -6.790251 -170.646877 218 31862ft 496kts
18-Feb-19 06:59 -6.879193 -170.719864 218 31862ft 495kts
18-Feb-19 07:00 -6.985909 -170.807483 218 31859ft 495kts
18-Feb-19 07:02 -7.110150 -170.909559 218 31859ft 494kts
18-Feb-19 07:02 -7.199034 -170.982631 218 31858ft 494kts
18-Feb-19 07:03 -7.305783 -171.070440 218 31858ft 494kts
18-Feb-19 07:04 -7.412208 -171.158036 218 31857ft 494kts
18-Feb-19 07:05 -7.518548 -171.245620 218 31856ft 494kts
18-Feb-19 07:06 -7.625047 -171.333394 218 31856ft 494kts
18-Feb-19 07:07 -7.731316 -171.421037 218 31856ft 493kts
18-Feb-19 07:08 -7.837397 -171.508583 218 31855ft 493kts
18-Feb-19 07:09 -7.943531 -171.596232 218 31855ft 493kts
18-Feb-19 07:10 -8.049631 -171.683912 218 31854ft 493kts
18-Feb-19 07:11 -8.155930 -171.771820 218 31854ft 493kts
18-Feb-19 07:12 -8.261719 -171.859367 218 31853ft 493kts
18-Feb-19 07:13 -8.367966 -171.947357 218 31853ft 492kts
18-Feb-19 07:14 -8.473851 -172.035107 218 31855ft 493kts
18-Feb-19 07:15 -8.579486 -172.122721 218 31855ft 493kts
18-Feb-19 07:16 -8.685334 -172.210573 219 31855ft 492kts
18-Feb-19 07:17 -8.791063 -172.298393 219 31854ft 492kts
18-Feb-19 07:18 -8.896757 -172.386251 219 31853ft 491kts
18-Feb-19 07:19 -9.002497 -172.474216 219 31853ft 491kts
18-Feb-19 07:20 -9.108090 -172.562126 219 31853ft 491kts
18-Feb-19 07:21 -9.213233 -172.649731 219 31852ft 491kts
18-Feb-19 07:22 -9.318549 -172.737551 219 31852ft 490kts
18-Feb-19 07:23 -9.424031 -172.825580 219 31852ft 490kts
18-Feb-19 07:24 -9.529242 -172.913454 219 31851ft 490kts
18-Feb-19 07:25 -9.634134 -173.001135 219 31850ft 490kts
18-Feb-19 07:26 -9.739392 -173.089195 219 31850ft 490kts
18-Feb-19 07:27 -9.844514 -173.177215 219 31849ft 490kts
18-Feb-19 07:28 -9.949937 -173.265563 219 31849ft 491kts
18-Feb-19 07:29 -10.055145 -173.353807 219 31849ft 490kts
18-Feb-19 07:30 -10.159915 -173.441761 219 31849ft 489kts
18-Feb-19 07:31 -10.264938 -173.530005 219 31849ft 490kts
18-Feb-19 07:32 -10.369841 -173.618225 219 31849ft 490kts
18-Feb-19 07:33 -10.474747 -173.706528 219 31848ft 489kts
18-Feb-19 07:34 -10.579525 -173.794804 219 31848ft 489kts
18-Feb-19 07:35 -10.684197 -173.883073 219 31848ft 489kts
18-Feb-19 07:36 -10.788760 -173.971329 219 31848ft 488kts
18-Feb-19 07:37 -10.893522 -174.059836 219 31848ft 488kts
18-Feb-19 07:38 -10.997894 -174.148099 219 31847ft 487kts
18-Feb-19 07:39 -11.102113 -174.236315 219 31847ft 487kts
18-Feb-19 07:40 -11.205747 -174.324122 219 31848ft 485kts
18-Feb-19 07:41 -11.309653 -174.412243 219 31847ft 484kts
18-Feb-19 07:42 -11.413300 -174.500232 219 31847ft 484kts
18-Feb-19 07:43 -11.516752 -174.588142 219 31847ft 484kts
18-Feb-19 07:44 -11.620143 -174.676089 219 31847ft 484kts
18-Feb-19 07:45 -11.723817 -174.764366 220 31847ft 484kts
18-Feb-19 07:46 -11.827123 -174.852337 220 31847ft 484kts
18-Feb-19 07:47 -11.930476 -174.940590 220 31847ft 484kts
18-Feb-19 07:48 -12.035756 -175.026864 215 31848ft 484kts
18-Feb-19 07:49 -12.148012 -175.102547 213 31846ft 483kts
18-Feb-19 07:50 -12.259856 -175.178947 214 31846ft 483kts
18-Feb-19 07:51 -12.371619 -175.255761 214 31846ft 483kts
18-Feb-19 07:52 -12.483105 -175.332612 214 31846ft 483kts
18-Feb-19 07:53 -12.594348 -175.409421 214 31846ft 482kts
18-Feb-19 07:54 -12.705554 -175.486292 214 31846ft 482kts
18-Feb-19 07:55 -12.816935 -175.563372 214 31846ft 482kts
18-Feb-19 07:56 -12.927736 -175.640130 214 31848ft 482kts
18-Feb-19 07:57 -13.039104 -175.717368 214 31846ft 482kts
18-Feb-19 07:58 -13.150007 -175.794368 214 31846ft 481kts
18-Feb-19 07:59 -13.233561 -175.852432 214 31840ft 481kts
18-Feb-19 08:00 -13.338078 -175.925139 215 31845ft 480kts
18-Feb-19 08:01 -13.429499 -175.988799 215 31846ft 480kts
18-Feb-19 08:02 -13.540073 -176.065874 215 31846ft 481kts
18-Feb-19 08:03 -13.650795 -176.143140 215 31846ft 481kts
18-Feb-19 08:04 -13.761219 -176.220288 215 31846ft 480kts
18-Feb-19 08:05 -13.871887 -176.297695 215 31846ft 480kts
18-Feb-19 08:06 -13.982051 -176.374841 215 31846ft 480kts
18-Feb-19 08:07 -14.092461 -176.452251 215 31846ft 480kts
18-Feb-19 08:08 -14.202973 -176.529824 215 31846ft 480kts
18-Feb-19 08:09 -14.288355 -176.589465 215 31847ft 480kts
18-Feb-19 08:10 -14.398503 -176.667246 215 31846ft 479kts
18-Feb-19 08:11 -14.508646 -176.744869 215 31846ft 479kts
18-Feb-19 08:12 -14.618642 -176.822442 215 31846ft 479kts
18-Feb-19 08:13 -14.728566 -176.900053 215 31846ft 478kts
18-Feb-19 08:14 -14.838534 -176.977792 215 31846ft 478kts
18-Feb-19 08:15 -14.948370 -177.055534 215 31846ft 478kts
18-Feb-19 08:16 -15.058407 -177.133517 215 31847ft 478kts
18-Feb-19 08:17 -15.168060 -177.211326 215 31846ft 478kts
18-Feb-19 08:18 -15.277662 -177.289199 215 31846ft 478kts
18-Feb-19 08:19 -15.387569 -177.367390 215 31847ft 478kts
18-Feb-19 08:20 -15.497250 -177.445522 215 31846ft 478kts
18-Feb-19 08:21 -15.606382 -177.523364 215 31846ft 478kts
18-Feb-19 08:22 -15.715946 -177.601619 215 31846ft 478kts
18-Feb-19 08:23 -15.825531 -177.679992 215 31846ft 478kts
18-Feb-19 08:24 -15.935239 -177.758559 215 31846ft 478kts
18-Feb-19 08:25 -16.044494 -177.836907 215 31846ft 478kts
18-Feb-19 08:26 -16.153572 -177.915234 215 31846ft 477kts
18-Feb-19 08:27 -16.263015 -177.993931 215 31846ft 477kts
18-Feb-19 08:28 -16.372250 -178.072586 215 31846ft 477kts
18-Feb-19 08:29 -16.481441 -178.151321 215 31846ft 477kts
18-Feb-19 08:30 -16.590887 -178.230348 215 31846ft 477kts
18-Feb-19 08:31 -16.699655 -178.308996 215 31846ft 477kts
18-Feb-19 08:32 -16.808785 -178.388017 215 31846ft 477kts
18-Feb-19 08:33 -16.916642 -178.466230 215 31846ft 476kts
18-Feb-19 08:34 -17.026738 -178.546178 215 31845ft 476kts
18-Feb-19 08:35 -17.135681 -178.625407 215 31846ft 476kts
18-Feb-19 08:36 -17.239098 -178.700723 215 31846ft 476kts
18-Feb-19 08:37 -17.329552 -178.766684 215 31846ft 476kts
18-Feb-19 08:38 -17.438016 -178.845885 215 31846ft 475kts
18-Feb-19 08:39 -17.546376 -178.925126 215 31847ft 477kts
18-Feb-19 08:40 -17.655053 -179.004719 215 31846ft 475kts
18-Feb-19 08:41 -17.763541 -179.084292 215 31846ft 476kts
18-Feb-19 08:42 -17.872230 -179.164134 215 31846ft 476kts
18-Feb-19 08:43 -17.980932 -179.244107 215 31846ft 476kts
18-Feb-19 08:44 -18.089285 -179.323945 215 31846ft 476kts
18-Feb-19 08:45 -18.197832 -179.404050 215 31846ft 476kts
18-Feb-19 08:46 -18.306304 -179.484225 215 31846ft 476kts
18-Feb-19 08:47 -18.411546 -179.562132 215 31846ft 476kts
18-Feb-19 08:48 -18.522542 -179.644428 215 31846ft 476kts
18-Feb-19 08:49 -18.631031 -179.724996 215 31846ft 476kts
18-Feb-19 08:50 -18.675236 -179.757861 215 31846ft 476kts
18-Feb-19 08:51 -18.757056 -179.818722 215 31845ft 475kts
18-Feb-19 08:53 -18.864740 -179.898917 215 31846ft 475kts
18-Feb-19 08:54 -18.972328 -179.979897 219 31847ft 473kts
18-Feb-19 08:55 -19.055488 179.914066 237 31843ft 474kts
18-Feb-19 08:56 -19.127449 179.796244 237 31842ft 474kts
18-Feb-19 08:57 -19.199690 179.679703 236 31843ft 473kts
18-Feb-19 08:58 -19.272293 179.563363 236 31842ft 473kts
18-Feb-19 08:59 -19.344525 179.447072 237 31842ft 473kts
18-Feb-19 09:00 -19.416800 179.330438 237 31842ft 473kts
18-Feb-19 09:01 -19.488492 179.214513 237 31841ft 473kts
18-Feb-19 09:02 -19.560784 179.097389 237 31841ft 473kts
18-Feb-19 09:03 -19.632879 178.980358 237 31841ft 473kts
18-Feb-19 09:04 -19.704888 178.863239 237 31841ft 474kts
18-Feb-19 09:05 -19.777080 178.745588 237 31840ft 474kts
18-Feb-19 09:06 -19.849003 178.628151 237 31840ft 474kts
18-Feb-19 09:07 -19.920767 178.510740 237 31831ft 474kts
18-Feb-19 09:08 -19.992567 178.393036 237 31830ft 474kts
18-Feb-19 09:09 -20.064334 178.275150 237 31829ft 474kts
18-Feb-19 09:10 -20.135967 178.157249 237 31828ft 474kts
18-Feb-19 09:10 -20.195411 178.059230 237 31827ft 474kts
18-Feb-19 09:11 -20.267083 177.940832 237 31826ft 474kts
18-Feb-19 09:13 -20.350203 177.803215 237 31825ft 474kts
18-Feb-19 09:14 -20.421595 177.684760 238 31824ft 474kts
18-Feb-19 09:14 -20.480951 177.586085 238 31824ft 474kts
18-Feb-19 09:15 -20.552056 177.467660 238 31823ft 474kts
18-Feb-19 09:16 -20.623024 177.349213 238 31810ft 474kts
18-Feb-19 09:17 -20.693947 177.230599 238 31788ft 474kts
18-Feb-19 09:18 -20.764695 177.112029 238 31780ft 473kts
18-Feb-19 09:20 -20.847329 176.973228 238 31778ft 474kts
18-Feb-19 09:20 -20.906106 176.874291 238 31776ft 474kts
18-Feb-19 09:21 -20.963606 176.777340 238 31776ft 474kts
18-Feb-19 09:22 -21.030210 176.664819 238 31771ft 473kts
18-Feb-19 09:23 -21.100473 176.545880 238 31768ft 473kts
18-Feb-19 09:24 -21.170761 176.426641 238 31765ft 473kts
18-Feb-19 09:25 -21.240742 176.307673 238 31763ft 472kts
18-Feb-19 09:26 -21.310677 176.188524 239 31759ft 472kts
18-Feb-19 09:27 -21.380734 176.068909 239 31756ft 472kts
18-Feb-19 09:28 -21.450507 175.949523 239 31754ft 473kts
18-Feb-19 09:29 -21.520337 175.829778 239 31750ft 472kts
18-Feb-19 09:30 -21.589918 175.710197 239 31747ft 472kts
18-Feb-19 09:31 -21.659381 175.590559 239 31744ft 472kts
18-Feb-19 09:32 -21.728908 175.470542 239 31741ft 472kts
18-Feb-19 09:33 -21.798351 175.350406 239 31738ft 473kts
18-Feb-19 09:34 -21.867776 175.230372 239 31734ft 473kts
18-Feb-19 09:35 -21.937341 175.109282 239 31731ft 474kts
18-Feb-19 09:36 -22.005633 174.988287 243 31728ft 473kts
18-Feb-19 09:37 -22.060178 174.859805 248 31725ft 470kts
18-Feb-19 09:38 -22.112972 174.730997 247 31737ft 470kts
18-Feb-19 09:39 -22.166863 174.602166 247 31734ft 471kts
18-Feb-19 09:40 -22.220736 174.473575 247 31732ft 471kts
18-Feb-19 09:41 -22.274517 174.344512 247 31784ft 472kts
18-Feb-19 09:42 -22.328286 174.215077 247 31783ft 472kts
18-Feb-19 09:43 -22.382086 174.085212 247 31782ft 472kts
18-Feb-19 09:44 -22.435548 173.955815 247 31780ft 472kts
18-Feb-19 09:45 -22.488992 173.826108 247 31779ft 472kts
18-Feb-19 09:46 -22.542380 173.696185 247 31777ft 472kts
18-Feb-19 09:47 -22.595732 173.565995 247 31776ft 472kts
18-Feb-19 09:48 -22.648742 173.436285 247 31775ft 472kts
18-Feb-19 09:49 -22.701726 173.306281 247 31774ft 472kts
18-Feb-19 09:50 -22.754691 173.175965 247 31773ft 472kts
18-Feb-19 09:51 -22.807631 173.045351 247 31772ft 473kts
18-Feb-19 09:52 -22.860356 172.914900 247 31771ft 473kts
18-Feb-19 09:53 -22.913117 172.783994 247 31770ft 473kts
18-Feb-19 09:54 -22.965616 172.653373 248 31769ft 473kts
18-Feb-19 09:55 -23.018154 172.522286 248 31769ft 473kts
18-Feb-19 09:56 -23.070464 172.391399 248 31768ft 473kts
18-Feb-19 09:57 -23.122761 172.260169 248 31768ft 473kts
18-Feb-19 09:58 -23.174840 172.129116 248 31767ft 473kts
18-Feb-19 09:59 -23.226922 171.997660 248 31767ft 473kts
18-Feb-19 10:00 -23.278991 171.865886 248 31767ft 474kts
18-Feb-19 10:01 -23.330989 171.733897 248 31767ft 475kts
18-Feb-19 10:02 -23.382917 171.601704 248 31768ft 475kts
18-Feb-19 10:03 -23.434648 171.469623 248 31768ft 475kts
18-Feb-19 10:04 -23.486399 171.337103 248 31769ft 475kts
18-Feb-19 10:05 -23.538174 171.204129 248 31769ft 475kts
18-Feb-19 10:06 -23.589702 171.071399 248 31770ft 476kts
18-Feb-19 10:07 -23.641099 170.938592 248 31771ft 476kts
18-Feb-19 10:08 -23.692539 170.805303 248 31773ft 477kts
18-Feb-19 10:09 -23.744005 170.671533 248 31774ft 477kts
18-Feb-19 10:10 -23.795170 170.538141 248 31778ft 475kts
18-Feb-19 10:11 -23.846060 170.405062 248 31780ft 475kts
18-Feb-19 10:12 -23.896972 170.272067 248 31782ft 475kts
18-Feb-19 10:13 -23.947757 170.138193 249 31784ft 475kts
18-Feb-19 10:14 -23.998279 170.004906 247 31786ft 475kts
18-Feb-19 10:15 -24.061037 169.877478 241 31788ft 477kts
18-Feb-19 10:16 -24.126460 169.750814 242 31789ft 476kts
18-Feb-19 10:17 -24.190798 169.624362 242 31697ft 476kts
18-Feb-19 10:18 -24.255228 169.497494 242 31697ft 476kts
18-Feb-19 10:19 -24.319443 169.370288 242 31697ft 475kts
18-Feb-19 10:20 -24.383263 169.243478 242 31697ft 475kts
18-Feb-19 10:21 -24.446813 169.116857 242 31698ft 474kts
18-Feb-19 10:22 -24.510499 168.989628 242 31698ft 474kts
18-Feb-19 10:23 -24.573898 168.862628 242 31699ft 474kts
18-Feb-19 10:24 -24.637115 168.735655 242 31700ft 474kts
18-Feb-19 10:25 -24.700273 168.608453 242 31701ft 474kts
18-Feb-19 10:26 -24.763162 168.481453 243 31702ft 473kts
18-Feb-19 10:27 -24.826088 168.354025 243 31703ft 473kts
18-Feb-19 10:28 -24.889131 168.226471 243 31705ft 473kts
18-Feb-19 10:29 -24.936627 168.129555 243 31699ft 473kts
18-Feb-19 10:30 -24.998784 168.001947 245 31708ft 471kts
18-Feb-19 10:31 -25.047003 167.867930 251 31704ft 470kts
18-Feb-19 10:32 -25.092081 167.732806 250 31704ft 470kts
18-Feb-19 10:33 -25.138320 167.597786 250 31706ft 470kts
18-Feb-19 10:34 -25.184641 167.463143 250 31707ft 469kts
18-Feb-19 10:35 -25.230610 167.328462 250 31709ft 468kts
18-Feb-19 10:36 -25.276508 167.193442 250 31712ft 468kts
18-Feb-19 10:37 -25.319210 167.067393 250 31711ft 469kts
18-Feb-19 10:38 -25.356761 166.956212 250 31713ft 469kts
18-Feb-19 10:39 -25.402208 166.821231 251 31714ft 468kts
18-Feb-19 10:40 -25.447584 166.685990 251 31716ft 468kts
18-Feb-19 10:41 -25.492767 166.550852 251 31718ft 468kts
18-Feb-19 10:42 -25.537707 166.415972 251 31720ft 467kts
18-Feb-19 10:43 -25.582502 166.281058 251 31721ft 466kts
18-Feb-19 10:44 -25.627093 166.146285 251 31731ft 466kts
18-Feb-19 10:45 -25.671558 166.011416 251 31733ft 465kts
18-Feb-19 10:46 -25.715717 165.876999 251 31734ft 465kts
18-Feb-19 10:47 -25.759880 165.742095 251 31736ft 465kts
18-Feb-19 10:48 -25.803833 165.607354 251 31738ft 465kts
18-Feb-19 10:49 -25.847772 165.472170 251 31740ft 465kts
18-Feb-19 10:50 -25.891590 165.336902 251 31742ft 466kts
18-Feb-19 10:51 -25.935464 165.201520 251 31744ft 466kts
18-Feb-19 10:52 -25.978975 165.065694 252 31745ft 465kts
18-Feb-19 10:53 -26.031013 164.934193 242 31748ft 465kts
18-Feb-19 10:54 -26.096171 164.810124 242 31750ft 464kts
18-Feb-19 10:55 -26.159993 164.685033 242 31753ft 464kts
18-Feb-19 10:56 -26.223723 164.560168 242 31756ft 464kts
18-Feb-19 10:57 -26.287378 164.434469 243 31758ft 464kts
18-Feb-19 10:58 -26.350513 164.309274 243 31761ft 464kts
18-Feb-19 10:59 -26.413767 164.183468 243 31763ft 464kts
18-Feb-19 11:00 -26.476752 164.057840 243 31765ft 464kts
18-Feb-19 11:01 -26.539733 163.931861 243 31767ft 464kts
18-Feb-19 11:02 -26.602392 163.806168 243 31769ft 463kts
18-Feb-19 11:04 -26.664995 163.680226 243 31770ft 462kts
18-Feb-19 11:05 -26.727212 163.554701 243 31772ft 462kts
18-Feb-19 11:06 -26.789295 163.429085 243 31774ft 462kts
18-Feb-19 11:07 -26.851475 163.303051 243 31775ft 461kts
18-Feb-19 11:08 -26.913377 163.177310 244 31776ft 461kts
18-Feb-19 11:09 -26.974894 163.051424 244 31778ft 461kts
18-Feb-19 11:10 -27.048235 162.932956 232 31779ft 465kts
18-Feb-19 11:11 -27.133702 162.823512 232 31782ft 465kts
18-Feb-19 11:12 -27.217839 162.713215 233 31783ft 464kts
18-Feb-19 11:13 -27.301937 162.602991 233 31785ft 464kts
18-Feb-19 11:14 -27.385594 162.492537 233 31787ft 464kts
18-Feb-19 11:15 -27.468982 162.382023 233 31788ft 462kts
18-Feb-19 11:16 -27.552258 162.271356 233 31790ft 463kts
18-Feb-19 11:17 -27.635400 162.160576 233 31791ft 462kts
18-Feb-19 11:18 -27.718117 162.050077 233 31799ft 461kts
18-Feb-19 11:19 -27.800951 161.939138 233 31800ft 461kts
18-Feb-19 11:20 -27.883432 161.828385 233 31802ft 461kts
18-Feb-19 11:20 -27.952130 161.735919 233 31803ft 461kts
18-Feb-19 11:22 -28.048227 161.606236 233 31804ft 461kts
18-Feb-19 11:23 -28.130666 161.494667 233 31805ft 460kts
18-Feb-19 11:23 -28.198915 161.402086 233 31807ft 461kts
18-Feb-19 11:24 -28.281127 161.290286 233 31808ft 461kts
18-Feb-19 11:26 -28.376668 161.159985 233 31809ft 461kts
18-Feb-19 11:27 -28.439479 161.074103 233 31811ft 461kts
18-Feb-19 11:27 -28.507694 160.980636 234 31812ft 460kts
18-Feb-19 11:28 -28.589263 160.868594 234 31813ft 460kts
18-Feb-19 11:29 -28.670616 160.756550 234 31814ft 460kts
18-Feb-19 11:31 -28.765877 160.624966 234 31815ft 459kts
18-Feb-19 11:31 -28.833362 160.531496 234 31816ft 459kts
18-Feb-19 11:32 -28.914489 160.418853 234 31817ft 459kts
18-Feb-19 11:33 -28.995509 160.306053 234 31818ft 459kts
18-Feb-19 11:34 -29.076224 160.193369 234 31819ft 458kts
18-Feb-19 11:35 -29.156841 160.080515 234 31811ft 458kts
18-Feb-19 11:36 -29.237347 159.967506 234 31812ft 457kts
18-Feb-19 11:37 -29.317412 159.854798 234 31862ft 455kts
18-Feb-19 11:38 -29.397113 159.742283 234 31862ft 455kts
18-Feb-19 11:39 -29.476961 159.629291 234 31861ft 454kts
18-Feb-19 11:40 -29.556378 159.516578 234 31866ft 454kts
18-Feb-19 11:41 -29.629202 159.412945 234 31864ft 454kts
18-Feb-19 11:42 -29.695689 159.317913 234 31863ft 454kts
18-Feb-19 11:43 -29.774899 159.204782 234 31862ft 454kts
18-Feb-19 11:44 -29.853945 159.091434 234 31861ft 453kts
18-Feb-19 11:45 -29.932565 158.978362 235 31859ft 453kts
18-Feb-19 11:46 -30.011413 158.864643 235 31859ft 452kts
18-Feb-19 11:47 -30.091770 158.748412 235 33075ft 472kts
18-Feb-19 11:48 -30.172251 158.631650 236 36129ft 459kts
18-Feb-19 11:49 -30.232379 158.544058 236 37929ft 453kts
18-Feb-19 11:50 -30.310392 158.430436 236 39826ft 449kts
18-Feb-19 11:51 -30.387570 158.317607 236 39853ft 447kts
18-Feb-19 11:52 -30.464755 158.204429 236 39845ft 447kts
18-Feb-19 11:53 -30.541759 158.091192 237 39844ft 446kts
18-Feb-19 11:54 -30.618609 157.977854 237 39843ft 446kts
18-Feb-19 11:55 -30.695119 157.864697 237 39842ft 445kts
18-Feb-19 11:56 -30.771391 157.751561 237 39840ft 445kts
18-Feb-19 11:57 -30.847870 157.638219 237 39839ft 444kts
18-Feb-19 11:58 -30.923550 157.525120 237 39823ft 443kts
18-Feb-19 11:59 -30.999262 157.411648 237 39822ft 443kts
18-Feb-19 12:00 -31.080608 157.302506 233 39821ft 446kts
18-Feb-19 12:01 -31.163901 157.195481 233 39820ft 444kts
18-Feb-19 12:02 -31.246307 157.088147 233 39819ft 444kts
18-Feb-19 12:03 -31.328837 156.981083 234 39818ft 443kts
18-Feb-19 12:04 -31.411157 156.873429 234 39817ft 443kts
18-Feb-19 12:05 -31.493207 156.765722 234 39816ft 442kts
18-Feb-19 12:06 -31.574857 156.658216 234 39816ft 441kts
18-Feb-19 12:07 -31.656309 156.550665 234 39815ft 441kts
18-Feb-19 12:08 -31.737796 156.442749 234 39814ft 440kts
18-Feb-19 12:09 -31.818985 156.334935 234 39813ft 440kts
18-Feb-19 12:10 -31.899823 156.227271 234 39812ft 439kts
18-Feb-19 12:11 -31.980639 156.119324 235 39794ft 439kts
18-Feb-19 12:12 -32.061170 156.011446 235 39792ft 439kts
18-Feb-19 12:13 -32.141794 155.903130 235 39791ft 439kts
18-Feb-19 12:14 -32.222297 155.794661 235 39790ft 438kts
18-Feb-19 12:15 -32.302326 155.686516 235 39774ft 437kts
18-Feb-19 12:16 -32.382252 155.578192 235 39773ft 436kts
18-Feb-19 12:17 -32.461816 155.470044 235 39772ft 436kts
18-Feb-19 12:18 -32.541585 155.361297 235 39771ft 436kts
18-Feb-19 12:19 -32.621070 155.252615 235 39771ft 435kts
18-Feb-19 12:20 -32.700326 155.144345 236 39770ft 434kts
18-Feb-19 12:21 -32.779185 155.035617 236 39769ft 434kts
18-Feb-19 12:22 -32.857399 154.926048 239 39783ft 429kts
18-Feb-19 12:23 -32.921433 154.807570 244 39784ft 425kts
18-Feb-19 12:24 -32.983730 154.688156 244 39784ft 425kts
18-Feb-19 12:25 -33.046979 154.568612 243 39783ft 425kts
18-Feb-19 12:26 -33.110320 154.449935 244 39782ft 425kts
18-Feb-19 12:27 -33.173378 154.330722 244 39782ft 424kts
18-Feb-19 12:28 -33.235997 154.211837 244 39781ft 423kts
18-Feb-19 12:29 -33.298396 154.092964 244 39781ft 422kts
18-Feb-19 12:30 -33.360593 153.974089 244 39780ft 421kts
18-Feb-19 12:31 -33.422284 153.855793 244 39777ft 419kts
18-Feb-19 12:32 -33.484056 153.736951 244 39777ft 419kts
18-Feb-19 12:33 -33.545623 153.618132 244 39759ft 419kts
18-Feb-19 12:34 -33.607089 153.499110 245 39763ft 418kts
18-Feb-19 12:35 -33.668245 153.380302 245 39763ft 418kts
18-Feb-19 12:36 -33.729220 153.261453 245 39762ft 418kts
18-Feb-19 12:37 -33.790230 153.142144 245 39762ft 418kts
18-Feb-19 12:38 -33.851025 153.022860 245 39765ft 418kts
18-Feb-19 12:39 -33.911746 152.903331 245 39764ft 417kts
18-Feb-19 12:40 -33.972445 152.784029 245 39769ft 416kts
18-Feb-19 12:41 -34.032242 152.665136 245 39774ft 415kts
18-Feb-19 12:42 -34.082801 152.542946 267 39773ft 398kts
18-Feb-19 12:43 -34.069723 152.411193 279 39768ft 395kts
18-Feb-19 12:44 -34.055451 152.279794 277 39768ft 395kts
18-Feb-19 12:45 -34.042826 152.148092 277 39766ft 394kts
18-Feb-19 12:46 -34.029984 152.016847 277 39764ft 394kts
18-Feb-19 12:47 -34.016723 151.886419 277 39508ft 382kts
18-Feb-19 12:48 -34.003767 151.760318 277 37048ft 383kts
18-Feb-19 12:49 -33.991043 151.636071 277 34476ft 397kts
18-Feb-19 12:50 -33.978837 151.507015 273 32116ft 419kts
18-Feb-19 12:51 -34.013729 151.370206 237 26955ft 438kts
18-Feb-19 12:52 -34.112580 151.291253 199 22490ft 427kts
18-Feb-19 12:53 -34.226830 151.306689 157 18491ft 416kts
18-Feb-19 12:54 -34.303700 151.404449 114 14503ft 403kts
18-Feb-19 12:55 -34.301191 151.531788 60 10631ft 374kts
18-Feb-19 12:56 -34.224311 151.578588 339 8794ft 290kts
18-Feb-19 12:57 -34.200693 151.501880 254 8178ft 271kts
18-Feb-19 12:58 -34.225723 151.416636 252 7245ft 259kts
18-Feb-19 12:59 -34.246127 151.339338 261 6511ft 242kts
18-Feb-19 13:00 -34.231118 151.267609 316 5517ft 226kts
18-Feb-19 13:01 -34.173816 151.236165 342 5043ft 229kts
18-Feb-19 13:02 -34.113517 151.219504 348 3326ft 213kts
18-Feb-19 13:03 -34.060545 151.205701 349 1937ft 178kts
18-Feb-19 13:04 -34.018935 151.194879 349 1121ft 130kts
18-Feb-19 13:05 -33.984694 151.185968 348 452ft 130kts
18-Feb-19 13:06 -33.953985 151.178026 347 35ft 36kts
18-Feb-19 13:07 -33.946519 151.176149 337 34ft 22kts
18-Feb-19 13:08 -33.942034 151.172807 347 34ft 17kts
18-Feb-19 13:09 -33.940221 151.169838 249 34ft 14kts
18-Feb-19 13:10 -33.938265 151.167367 336 34ft 9kts
18-Feb-19 13:11 -33.938229 151.166375 253 34ft 1kts
18-Feb-19 13:12 -33.938266 151.166221 253 34ft 0kts
18-Feb-19 13:13 -33.938266 151.166221 253 34ft 0kts

Navigation Log

Ident Type
Flight plan parsing failed, navigation log unavailable